Flight Track Log - Related Links

Times and Time Zones

All times are in EDT time to prevent confusion due to time zone crossing. See the UPS2332 flight status page for this flight to view local times or setup timezone preferences in your user account.

Time Position Orientation Groundspeed Altitude Reporting Facility
EDT Latitude Longitude Course Direction KTS MPH feet Rate Location/Type
Wed 04:55:18 PM 38.1833 -85.7500 334° Northwest 163 188 1,200  Level Louisville TRACON
Wed 04:57:06 PM 38.2631 -85.7992 334° Northwest 238 274 5,000 2,280 Climbing Indianapolis Center
Wed 05:02:27 PM 37.9460 -86.1970 334° Northwest 388 447 17,500 2,650 Climbing FlightAware ADS-B
Wed 05:02:57 PM 37.8900 -86.2410 212° Southwest 420 483 20,500 4,625 Climbing FlightAware ADS-B
Wed 05:03:15 PM 37.8570 -86.2520 195° South 434 499 21,200 2,634 Climbing FlightAware ADS-B
Wed 05:04:19 PM 37.7250 -86.2800 190° South 459 528 24,100 2,534 Climbing FlightAware ADS-B
Wed 05:05:11 PM 37.6130 -86.3020 189° South 468 539 26,100 2,073 Climbing FlightAware ADS-B
Wed 05:06:09 PM 37.4870 -86.3290 190° South 485 558 27,900 2,413 Climbing FlightAware ADS-B
Wed 05:06:43 PM 37.4100 -86.3440 189° South 470 541 29,800 2,721 Climbing FlightAware ADS-B
Wed 05:07:35 PM 37.3030 -86.3660 189° South 452 520 31,800 1,630 Climbing FlightAware ADS-B
Wed 05:08:04 PM 37.2415 -86.3793 190° South 453 521 32,000 1,120 Climbing FlightAware ADS-B
Wed 05:08:50 PM 37.1465 -86.3989 189° South 454 522 33,200 1,481 Climbing FlightAware ADS-B
Wed 05:09:21 PM 37.0854 -86.4112 189° South 433 498 33,900 885 Climbing FlightAware ADS-B
Wed 05:09:51 PM 37.0250 -86.4240 190° South 445 512 34,100 1,080 Climbing FlightAware ADS-B
Wed 05:10:11 PM 36.9832 -86.4324 189° South 440 506 34,800 2,057 Climbing FlightAware ADS-B
Wed 05:10:26 PM 36.9548 -86.4372 188° South 441 507 35,300 1,750 Climbing FlightAware ADS-B
Wed 05:10:35 PM 36.9342 -86.4377 181° South 454 522 35,500 1,077 Climbing FlightAware ADS-B
Wed 05:11:05 PM 36.8718 -86.4296 174° South 467 537 36,000 1,154 Climbing FlightAware ADS-B
Wed 05:11:27 PM 36.8231 -86.4243 175° South 460 529 36,500 1,385 Climbing FlightAware ADS-B
Wed 05:11:44 PM 36.7891 -86.4254 181° South 440 506 36,900 638 Climbing FlightAware ADS-B
Wed 05:12:14 PM 36.7301 -86.4389 190° South 431 496 37,000 100 Climbing FlightAware ADS-B
Wed 05:12:44 PM 36.6706 -86.4526 190° South 430 495 37,000  Level FlightAware ADS-B
Wed 05:13:21 PM 36.5999 -86.4689 190° South 429 494 37,000  Level FlightAware ADS-B
Wed 05:13:52 PM 36.5379 -86.4832 190° South 430 495 37,000  Level FlightAware ADS-B
Wed 05:14:35 PM 36.4570 -86.5020 191° South 431 496 37,000  Level FlightAware ADS-B
Wed 05:15:40 PM 36.3260 -86.5260 188° South 446 513 37,000  Level FlightAware ADS-B
Wed 05:16:16 PM 36.2500 -86.5140 173° South 473 544 37,000  Level FlightAware ADS-B
Wed 05:17:13 PM 36.1282 -86.4658 162° South 481 554 37,000  Level FlightAware ADS-B
Wed 05:17:43 PM 36.0639 -86.4393 162° South 481 554 37,000  Level FlightAware ADS-B
Wed 05:18:15 PM 35.9977 -86.4124 162° South 479 551 37,000  Level FlightAware ADS-B
Wed 05:18:45 PM 35.9346 -86.3869 162° South 479 551 37,000  Level FlightAware ADS-B
Wed 05:19:18 PM 35.8640 -86.3587 162° South 478 550 37,000  Level FlightAware ADS-B
Wed 05:20:05 PM 35.7652 -86.3194 162° South 477 549 37,000  Level FlightAware ADS-B
Wed 05:20:37 PM 35.6980 -86.2927 162° South 476 548 37,000  Level FlightAware ADS-B
Wed 05:21:24 PM 35.6008 -86.2542 162° South 475 547 37,000  Level FlightAware ADS-B
Wed 05:22:03 PM 35.5200 -86.2220 162° South 474 545 37,000  Level FlightAware ADS-B
Wed 05:23:01 PM 35.4040 -86.1760 162° South 471 542 37,000  Level FlightAware ADS-B
Wed 05:23:38 PM 35.3213 -86.1437 162° South 472 543 37,000  Level FlightAware ADS-B
Wed 05:24:09 PM 35.2580 -86.1190 162° South 471 542 37,000  Level FlightAware ADS-B
Wed 05:24:39 PM 35.1947 -86.0941 162° South 472 543 37,000  Level FlightAware ADS-B
Wed 05:25:09 PM 35.1317 -86.0694 162° South 472 543 37,000  Level FlightAware ADS-B
Wed 05:25:41 PM 35.0667 -86.0439 162° South 473 544 37,000  Level FlightAware ADS-B
Wed 05:26:11 PM 35.0029 -86.0190 162° South 472 543 37,000  Level FlightAware ADS-B
Wed 05:26:41 PM 34.9403 -85.9946 162° South 473 544 37,000  Level FlightAware ADS-B
Wed 05:27:12 PM 34.8766 -85.9698 162° South 472 543 37,000  Level FlightAware ADS-B
Wed 05:27:52 PM 34.7941 -85.9376 162° South 469 540 37,000  Level FlightAware ADS-B
Wed 05:28:27 PM 34.7222 -85.9097 162° South 467 537 37,000  Level FlightAware ADS-B
Wed 05:29:01 PM 34.6510 -85.8822 162° South 467 537 37,000  Level FlightAware ADS-B
Wed 05:29:34 PM 34.5836 -85.8562 162° South 465 535 37,000  Level FlightAware ADS-B
Wed 05:30:07 PM 34.5152 -85.8298 162° South 464 534 37,000  Level FlightAware ADS-B
Wed 05:30:40 PM 34.4494 -85.8044 162° South 464 534 37,000  Level FlightAware ADS-B
Wed 05:31:11 PM 34.3852 -85.7797 162° South 463 533 37,000  Level FlightAware ADS-B
Wed 05:31:44 PM 34.3183 -85.7541 162° South 463 533 37,000  Level FlightAware ADS-B
Wed 05:32:16 PM 34.2530 -85.7291 162° South 462 532 37,000  Level FlightAware ADS-B
Wed 05:32:49 PM 34.1842 -85.7027 162° South 462 532 37,000  Level FlightAware ADS-B
Wed 05:33:24 PM 34.1380 -85.6840 161° South 462 532 37,000  Level FlightAware ADS-B
Wed 05:33:58 PM 34.0790 -85.6610 162° South 462 532 37,000  Level FlightAware ADS-B
Wed 05:34:58 PM 33.9760 -85.6200 162° South 462 532 37,000  Level FlightAware ADS-B
Wed 05:35:58 PM 33.8720 -85.5790 162° South 462 532 37,000  Level FlightAware ADS-B
Wed 05:36:35 PM 33.8080 -85.5540 162° South 462 532 37,000  Level FlightAware ADS-B
Wed 05:36:59 PM 33.7670 -85.5380 162° South 462 532 37,000  Level FlightAware ADS-B
Wed 05:37:35 PM 33.7040 -85.5140 162° South 462 532 37,000  Level FlightAware ADS-B
Wed 05:38:11 PM 33.6420 -85.4900 162° South 462 532 37,000  Level FlightAware ADS-B
Wed 05:39:11 PM 33.5380 -85.4490 162° South 462 532 37,000  Level FlightAware ADS-B
Wed 05:40:18 PM 33.2790 -85.3600 164° South 462 532 37,000  Level FlightAware ADS-B
Wed 05:41:23 PM 33.1410 -85.3090 163° South 462 532 37,000  Level FlightAware ADS-B
Wed 05:41:34 PM 33.1260 -85.3030 161° South 462 532 37,000  Level FlightAware ADS-B
Wed 05:42:18 PM 33.0310 -85.2680 163° South 462 532 37,000  Level FlightAware ADS-B
Wed 05:43:23 PM 32.8940 -85.2170 163° South 461 531 37,000  Level FlightAware ADS-B
Wed 05:44:33 PM 32.7510 -85.1640 163° South 458 527 37,000  Level FlightAware ADS-B
Wed 05:45:04 PM 32.7020 -85.1460 163° South 458 527 37,000  Level FlightAware ADS-B
Wed 05:45:55 PM 32.5850 -85.1030 163° South 457 526 37,000  Level FlightAware ADS-B
Wed 05:46:40 PM 32.5000 -85.0720 163° South 456 525 37,000  Level FlightAware ADS-B
Wed 05:47:27 PM 32.3980 -85.0340 163° South 457 526 37,000  Level FlightAware ADS-B
Wed 05:48:24 PM 32.2840 -84.9930 163° South 455 524 37,000  Level FlightAware ADS-B
Wed 05:49:20 PM 32.1720 -84.9520 163° South 454 522 37,000  Level FlightAware ADS-B
Wed 05:49:54 PM 32.1110 -84.9290 162° South 454 522 37,000  Level FlightAware ADS-B
Wed 05:50:42 PM 32.0300 -84.8980 162° South 454 522 37,000  Level FlightAware ADS-B
Wed 05:51:37 PM 31.9000 -84.8530 164° South 451 519 37,000  Level FlightAware ADS-B
Wed 05:51:48 PM 31.8720 -84.8430 163° South 451 519 37,000  Level FlightAware ADS-B
Wed 05:52:26 PM 31.8080 -84.8180 162° South 451 519 37,000  Level FlightAware ADS-B
Wed 05:53:02 PM 31.7470 -84.7950 162° South 451 519 37,000  Level FlightAware ADS-B
Wed 05:53:50 PM 31.6420 -84.7580 163° South 451 519 37,000  Level FlightAware ADS-B
Wed 05:55:04 PM 31.6590 -84.7650 341° North 451 519 37,000  Level FlightAware ADS-B
Wed 05:56:28 PM 31.3170 -84.6430 163° South 449 517 37,000  Level FlightAware ADS-B
Wed 05:57:16 PM 31.2190 -84.6090 163° South 449 517 37,000  Level FlightAware ADS-B
Wed 05:57:57 PM 31.1365 -84.5790 163° South 450 518 37,000  Level FlightAware ADS-B (KONZ)
Wed 05:58:47 PM 31.0374 -84.5437 163° South 449 517 37,000  Level FlightAware ADS-B (KONZ)
Wed 05:59:58 PM 30.8990 -84.4950 163° South 448 516 37,000  Level FlightAware ADS-B
Wed 06:00:04 PM 30.8871 -84.4905 162° South 449 517 37,000  Level FlightAware ADS-B (KONZ)
Wed 06:00:56 PM 30.7830 -84.4530 163° South 447 514 37,000  Level FlightAware ADS-B
Wed 06:01:40 PM 30.6940 -84.4220 163° South 446 513 37,000  Level FlightAware ADS-B
Wed 06:02:32 PM 30.5930 -84.3870 163° South 446 513 37,000  Level FlightAware ADS-B
Wed 06:03:26 PM 30.4900 -84.3310 155° Southeast 466 536 37,000  Level FlightAware ADS-B
Wed 06:04:18 PM 30.3890 -84.2640 150° Southeast 468 539 37,000  Level FlightAware ADS-B
Wed 06:05:06 PM 30.3010 -84.2070 151° Southeast 467 537 37,000  Level FlightAware ADS-B
Wed 06:05:38 PM 30.2440 -84.1690 150° Southeast 467 537 37,000  Level FlightAware ADS-B
Wed 06:06:33 PM 30.1360 -84.0990 151° Southeast 467 537 37,000  Level FlightAware ADS-B
Wed 06:07:07 PM 30.0760 -84.0600 151° Southeast 466 536 37,000  Level FlightAware ADS-B
Wed 06:07:55 PM 29.9830 -83.9990 150° Southeast 466 536 37,000  Level FlightAware ADS-B
Wed 06:08:00 PM 29.9717 -83.9919 152° Southeast 467 537 37,000  Level FlightAware ADS-B (KONZ)
Wed 06:08:56 PM 29.8670 -83.9240 151° Southeast 466 536 37,000  Level FlightAware ADS-B
Wed 06:09:55 PM 29.7600 -83.8550 151° Southeast 467 537 37,000  Level FlightAware ADS-B
Wed 06:10:47 PM 29.6580 -83.7890 151° Southeast 467 537 37,000  Level FlightAware ADS-B
Wed 06:11:37 PM 29.5640 -83.7290 151° Southeast 467 537 37,000  Level FlightAware ADS-B
Wed 06:12:29 PM 29.4670 -83.6670 151° Southeast 466 536 37,000  Level FlightAware ADS-B
Wed 06:13:27 PM 29.3570 -83.5960 151° Southeast 466 536 37,000  Level FlightAware ADS-B
Wed 06:13:58 PM 29.2980 -83.5580 151° Southeast 465 535 37,000  Level FlightAware ADS-B
Wed 06:14:55 PM 29.1930 -83.4920 151° Southeast 465 535 37,000  Level FlightAware ADS-B
Wed 06:15:33 PM 29.1220 -83.4460 150° Southeast 466 536 37,000  Level FlightAware ADS-B
Wed 06:16:11 PM 29.0540 -83.4030 151° Southeast 466 536 37,000  Level FlightAware ADS-B
Wed 06:17:00 PM 28.9580 -83.3420 151° Southeast 466 536 37,000  Level FlightAware ADS-B
Wed 06:17:52 PM 28.8570 -83.2810 152° Southeast 465 535 37,000  Level FlightAware ADS-B
Wed 06:18:33 PM 28.7790 -83.2350 153° Southeast 466 536 37,000  Level FlightAware ADS-B
Wed 06:19:31 PM 28.6660 -83.1680 153° Southeast 468 539 37,000  Level FlightAware ADS-B
Wed 06:20:28 PM 28.5560 -83.1020 152° Southeast 470 541 37,000  Level FlightAware ADS-B
Wed 06:20:58 PM 28.4990 -83.0680 152° Southeast 471 542 37,000  Level FlightAware ADS-B
Wed 06:21:43 PM 28.4110 -83.0160 153° Southeast 471 542 37,000  Level FlightAware ADS-B
Wed 06:22:31 PM 28.3200 -82.9630 153° Southeast 472 543 37,000  Level FlightAware ADS-B
Wed 06:23:28 PM 28.2080 -82.8970 153° Southeast 474 545 37,000  Level FlightAware ADS-B
Wed 06:24:15 PM 28.1160 -82.8420 152° Southeast 476 548 37,000  Level FlightAware ADS-B
Wed 06:25:05 PM 28.0170 -82.7840 153° Southeast 476 548 37,000  Level FlightAware ADS-B
Wed 06:25:36 PM 27.9560 -82.7570 159° South 469 540 37,000  Level FlightAware ADS-B
Wed 06:26:29 PM 27.8470 -82.7240 165° South 465 535 37,000  Level FlightAware ADS-B
Wed 06:27:11 PM 27.7560 -82.6990 166° South 467 537 37,000  Level FlightAware ADS-B
Wed 06:28:03 PM 27.6500 -82.6690 166° South 467 537 37,000  Level FlightAware ADS-B
Wed 06:29:00 PM 27.5280 -82.6330 165° South 467 537 37,000  Level FlightAware ADS-B
Wed 06:29:44 PM 27.4360 -82.6060 165° South 467 537 37,000  Level FlightAware ADS-B
Wed 06:30:42 PM 27.3160 -82.5710 165° South 467 537 37,000  Level FlightAware ADS-B
Wed 06:31:14 PM 27.2480 -82.5520 166° South 468 539 37,000  Level FlightAware ADS-B
Wed 06:31:50 PM 27.1730 -82.5300 165° South 469 540 37,000  Level FlightAware ADS-B
Wed 06:32:53 PM 27.0450 -82.4690 157° South 484 557 37,000  Level FlightAware ADS-B
Wed 06:33:45 PM 26.9440 -82.4060 151° Southeast 477 549 37,000  Level FlightAware ADS-B
Wed 06:34:30 PM 26.8530 -82.3510 152° Southeast 476 548 37,000  Level FlightAware ADS-B
Wed 06:35:15 PM 26.7660 -82.2970 151° Southeast 477 549 37,000  Level FlightAware ADS-B
Wed 06:35:50 PM 26.6950 -82.2550 152° Southeast 476 548 37,000 -140 Level FlightAware ADS-B
Wed 06:36:41 PM 26.5980 -82.1960 151° Southeast 480 552 36,800 -840 Descending FlightAware ADS-B
Wed 06:37:30 PM 26.5000 -82.1370 152° Southeast 482 555 35,600 -1,459 Descending FlightAware ADS-B
Wed 06:37:55 PM 26.4490 -82.1060 151° Southeast 491 565 35,000 -1,200 Descending FlightAware ADS-B
Wed 06:38:35 PM 26.3700 -82.0580 151° Southeast 490 564 34,300 -1,080 Descending FlightAware ADS-B
Wed 06:39:35 PM 26.2510 -81.9870 152° Southeast 480 552 33,200 -1,086 Descending FlightAware ADS-B
Wed 06:40:20 PM 26.1600 -81.9320 152° Southeast 478 550 32,400 -1,000 Descending FlightAware ADS-B
Wed 06:41:05 PM 26.0770 -81.8830 152° Southeast 474 545 31,700 -875 Descending FlightAware ADS-B
Wed 06:41:56 PM 25.9750 -81.8210 151° Southeast 472 543 31,000 -914 Descending FlightAware ADS-B
Wed 06:42:50 PM 25.8710 -81.7590 152° Southeast 463 533 30,100 -1,200 Descending FlightAware ADS-B
Wed 06:43:26 PM 25.8000 -81.7170 152° Southeast 475 547 29,200 -1,364 Descending FlightAware ADS-B
Wed 06:43:56 PM 25.7420 -81.6830 152° Southeast 475 547 28,600 -1,050 Descending FlightAware ADS-B
Wed 06:44:46 PM 25.6460 -81.6260 152° Southeast 473 544 27,800 -1,020 Descending FlightAware ADS-B
Wed 06:45:36 PM 25.5490 -81.5680 152° Southeast 472 543 26,900 -988 Descending FlightAware ADS-B
Wed 06:46:11 PM 25.4820 -81.5280 152° Southeast 462 532 26,400 -1,200 Descending FlightAware ADS-B
Wed 06:47:11 PM 25.3790 -81.4430 143° Southeast 460 529 25,000 -2,044 Descending FlightAware ADS-B
Wed 06:47:42 PM 25.3490 -81.3790 117° Southeast 471 542 23,300 -2,800 Descending FlightAware ADS-B
Wed 06:48:11 PM 25.3380 -81.3090 100° East 465 535 22,200 -2,154 Descending FlightAware ADS-B
Wed 06:49:00 PM 25.3400 -81.1960 89° East 451 519 20,500 -2,312 Descending FlightAware ADS-B
Wed 06:50:00 PM 25.3450 -81.0590 88° East 444 511 18,000 -2,343 Descending FlightAware ADS-B
Wed 06:50:45 PM 25.3620 -80.9580 79° East 431 496 16,400 -2,160 Descending FlightAware ADS-B
Wed 06:51:40 PM 25.3820 -80.8410 79° East 420 483 14,400 -1,840 Descending FlightAware ADS-B
Wed 06:52:00 PM 25.3890 -80.7990 80° East 406 467 14,100 -300 Descending FlightAware ADS-B
Wed 06:52:40 PM 25.4010 -80.7220 80° East 372 428 14,100 -189 Level FlightAware ADS-B
Wed 06:53:35 PM 25.4090 -80.6240 85° East 332 382 13,800 -635 Descending FlightAware ADS-B
Wed 06:54:05 PM 25.4140 -80.5730 84° East 328 377 13,200 -1,672 Descending FlightAware ADS-B
Wed 06:54:36 PM 25.4180 -80.5230 85° East 322 371 12,100 -2,386 Descending FlightAware ADS-B
Wed 06:55:33 PM 25.4260 -80.4300 85° East 317 365 9,700 -2,338 Descending FlightAware ADS-B
Wed 06:55:53 PM 25.4290 -80.3980 84° East 313 360 9,100 -1,263 Descending FlightAware ADS-B
Wed 06:56:30 PM 25.4430 -80.3440 74° East 276 318 8,500 -1,333 Descending FlightAware ADS-B
Wed 06:56:56 PM 25.4520 -80.3100 74° East 269 310 7,700 -1,867 Descending FlightAware ADS-B
Wed 06:57:15 PM 25.4590 -80.2850 73° East 266 306 7,100 -1,773 Descending FlightAware ADS-B
Wed 06:57:40 PM 25.4670 -80.2520 75° East 263 303 6,400 -1,647 Descending FlightAware ADS-B
Wed 06:58:06 PM 25.4760 -80.2200 73° East 258 297 5,700 -1,548 Descending FlightAware ADS-B
Wed 06:58:42 PM 25.4890 -80.1720 73° East 254 292 4,800 -1,313 Descending FlightAware ADS-B
Wed 06:59:10 PM 25.4980 -80.1370 74° East 250 288 4,300 -857 Descending FlightAware ADS-B
Wed 06:59:38 PM 25.5070 -80.1030 74° East 248 285 4,000 -300 Descending FlightAware ADS-B
Wed 07:00:10 PM 25.5170 -80.0660 73° East 242 278 4,000 105 Level FlightAware ADS-B
Wed 07:00:35 PM 25.5250 -80.0380 72° East 214 246 4,100  Climbing FlightAware ADS-B
Wed 07:01:00 PM 25.5320 -80.0100 75° East 216 249 4,000 -100 Descending FlightAware ADS-B
Wed 07:01:35 PM 25.5300 -79.9730 93° East 218 251 4,000  Level FlightAware ADS-B
Wed 07:01:55 PM 25.5440 -79.9580 44° Northeast 201 231 4,000 -400 Level FlightAware ADS-B
Wed 07:02:05 PM 25.5520 -79.9560 13° North 192 221 3,800 -800 Descending FlightAware ADS-B
Wed 07:02:40 PM 25.5850 -79.9590 355° North 177 204 3,400 -738 Descending FlightAware ADS-B
Wed 07:03:10 PM 25.6050 -79.9650 345° North 164 189 3,000 -400 Descending FlightAware ADS-B
Wed 07:03:40 PM 25.6230 -79.9860 314° West 167 192 3,000  Level FlightAware ADS-B
Wed 07:04:05 PM 25.6370 -80.0010 316° Northwest 165 190 3,000 133 Level FlightAware ADS-B
Wed 07:04:25 PM 25.6480 -80.0130 315° West 167 192 3,100  Climbing FlightAware ADS-B
Wed 07:04:45 PM 25.6570 -80.0270 305° West 172 198 3,000 -130 Descending FlightAware ADS-B
Wed 07:05:11 PM 25.6680 -80.0470 301° West 171 197 3,000  Level FlightAware ADS-B
Wed 07:05:31 PM 25.6760 -80.0620 301° West 171 197 3,000  Level FlightAware ADS-B
Wed 07:05:56 PM 25.6870 -80.0810 303° West 170 196 3,000  Level FlightAware ADS-B
Wed 07:06:26 PM 25.6980 -80.1050 297° West 172 198 3,000  Level FlightAware ADS-B
Wed 07:06:52 PM 25.7080 -80.1250 299° West 178 205 3,000 -316 Level FlightAware ADS-B
Wed 07:07:23 PM 25.7200 -80.1480 300° West 169 194 2,700 -764 Descending FlightAware ADS-B
Wed 07:07:47 PM 25.7300 -80.1670 300° West 150 173 2,300 -906 Descending FlightAware ADS-B
Wed 07:08:16 PM 25.7400 -80.1860 300° West 141 162 1,900 -735 Descending FlightAware ADS-B
Wed 07:08:36 PM 25.7460 -80.1990 297° West 142 163 1,700 -764 Descending FlightAware ADS-B
Wed 07:09:11 PM 25.7570 -80.2210 299° West 136 157 1,200 -764 Descending FlightAware ADS-B
Wed 07:09:31 PM 25.7640 -80.2340 301° West 143 165 1,000 -585 Descending FlightAware ADS-B
Wed 07:09:52 PM 25.7700 -80.2450 301° West 140 161 800 -783 Descending FlightAware ADS-B
Wed 07:10:17 PM 25.7790 -80.2630 299° West 145 167 400 -960 Descending FlightAware ADS-B
Wed 07:10:55 PM 25.7920 -80.2890 299° West 115 132 -632 Descending FlightAware ADS-B

Login

Don't have an account? Register now (free) for customized features, flight alerts, and more!